Time;durP1;ratioP1;P1;durP2;ratioP2;P2;SDS_P1;SDS_P2;PMS_P1;PMS_P2;Temp;Humidity;BMP_temperature;BMP_pressure;BME280_temperature;BME280_humidity;BME280_pressure;Samples;Min_cycle;Max_cycle;Signal;HPM_P1;HPM_P2
2023/10/14 00:01:51;;;;;;;3.55;0.90;;;;;;;;;;4956066;28;20098;-74
2023/10/14 00:04:21;;;;;;;5.95;1.40;;;;;;;;;;4955714;28;20105;-74
2023/10/14 00:06:48;;;;;;;3.92;0.80;;;;;;;;;;4955363;28;20047;-74
2023/10/14 00:09:14;;;;;;;6.05;0.88;;;;;;;;;;4955391;28;20047;-75
2023/10/14 00:11:43;;;;;;;;;;;;;;;;;;4956001;28;20054;-75
2023/10/14 00:14:17;;;;;;;2.80;1.00;;;;;;;;;;4956400;28;19961;-74
2023/10/14 00:16:49;;;;;;;3.90;0.95;;;;;;;;;;4955811;28;20070;-74
2023/10/14 00:19:15;;;;;;;1.85;0.98;;;;;;;;;;4955740;28;20500;-76
2023/10/14 00:21:42;;;;;;;3.88;1.20;;;;;;;;;;4955449;28;20050;-74
2023/10/14 00:24:08;;;;;;;3.78;1.17;;;;;;;;;;4955375;28;20596;-74
2023/10/14 00:26:35;;;;;;;2.67;1.02;;;;;;;;;;4955069;28;20042;-74
2023/10/14 00:31:43;;;;;;;5.15;1.02;;;;;;;;;;4955565;28;20057;-74
2023/10/14 00:34:09;;;;;;;4.63;1.30;;;;;;;;;;4954802;28;20387;-74
2023/10/14 00:36:35;;;;;;;;;;;;;;;;;;4954535;28;20282;-75
2023/10/14 00:39:12;;;;;;;5.38;1.50;;;;;;;;;;4955518;28;19928;-74
2023/10/14 00:41:38;;;;;;;3.97;1.50;;;;;;;;;;4954869;28;20054;-74
2023/10/14 00:44:04;;;;;;;5.72;1.20;;;;;;;;;;4955985;28;20058;-74
2023/10/14 00:46:32;;;;;;;;;;;;;;;;;;4955570;28;20043;-74
2023/10/14 00:49:01;;;;;;;6.80;1.80;;;;;;;;;;4955950;28;20012;-74
2023/10/14 00:51:28;;;;;;;8.45;1.20;;;;;;;;;;4954580;28;20051;-74
2023/10/14 00:54:01;;;;;;;7.28;1.30;;;;;;;;;;4955229;28;20051;-74
2023/10/14 00:56:31;;;;;;;5.97;1.40;;;;;;;;;;4954692;28;20129;-74
2023/10/14 00:58:58;;;;;;;7.18;1.33;;;;;;;;;;4955859;28;20054;-74
2023/10/14 01:01:30;;;;;;;8.07;1.85;;;;;;;;;;4955191;28;20050;-74
2023/10/14 01:09:33;;;;;;;6.25;1.33;;;;;;;;;;4954742;28;20102;-74
2023/10/14 01:12:16;;;;;;;8.18;1.55;;;;;;;;;;4955434;28;20051;-75
2023/10/14 01:14:42;;;;;;;9.05;1.45;;;;;;;;;;4955541;28;20055;-74
2023/10/14 01:17:09;;;;;;;9.60;1.45;;;;;;;;;;4955520;28;20042;-74
2023/10/14 01:19:37;;;;;;;5.13;1.40;;;;;;;;;;4955077;28;20102;-74
2023/10/14 01:22:03;;;;;;;11.13;1.75;;;;;;;;;;4954861;28;20047;-74
2023/10/14 01:24:38;;;;;;;8.18;1.80;;;;;;;;;;4954419;28;20146;-74
2023/10/14 01:27:05;;;;;;;9.75;2.00;;;;;;;;;;4955304;28;20086;-75
2023/10/14 01:29:38;;;;;;;10.98;1.67;;;;;;;;;;4955134;28;20051;-74
2023/10/14 01:32:23;;;;;;;9.60;2.28;;;;;;;;;;4955528;28;20047;-74
2023/10/14 01:34:49;;;;;;;10.07;1.88;;;;;;;;;;4955516;28;20051;-75
2023/10/14 01:37:19;;;;;;;;;;;;;;;;;;4954765;28;20062;-75
2023/10/14 01:39:48;;;;;;;12.23;1.88;;;;;;;;;;4954523;28;19922;-75
2023/10/14 01:42:16;;;;;;;12.98;2.00;;;;;;;;;;4955482;28;20051;-74
2023/10/14 01:44:42;;;;;;;6.70;1.70;;;;;;;;;;4956103;28;20049;-74
2023/10/14 01:47:08;;;;;;;;;;;;;;;;;;4959103;28;20053;-75
2023/10/14 01:49:36;;;;;;;10.93;1.83;;;;;;;;;;4958166;28;19930;-74
2023/10/14 01:52:06;;;;;;;13.98;1.85;;;;;;;;;;4957904;28;20134;-75
2023/10/14 01:54:32;;;;;;;10.93;1.80;;;;;;;;;;4957641;28;20047;-75
2023/10/14 01:56:59;;;;;;;;;;;;;;;;;;4958864;28;20113;-74
2023/10/14 01:59:27;;;;;;;12.35;1.92;;;;;;;;;;4958370;28;20450;-74
2023/10/14 02:01:57;;;;;;;12.82;1.80;;;;;;;;;;4958472;28;20120;-74
2023/10/14 02:04:24;;;;;;;10.45;1.70;;;;;;;;;;4958265;28;20133;-76
2023/10/14 02:07:03;;;;;;;15.05;2.47;;;;;;;;;;4957652;28;20046;-74
2023/10/14 02:09:30;;;;;;;10.70;2.28;;;;;;;;;;4957544;28;20105;-75
2023/10/14 02:11:56;;;;;;;12.73;1.90;;;;;;;;;;4957876;28;20548;-75
2023/10/14 02:14:22;;;;;;;;;;;;;;;;;;4958721;28;20117;-74
2023/10/14 02:16:49;;;;;;;12.03;1.93;;;;;;;;;;4957687;28;19973;-75
2023/10/14 02:19:21;;;;;;;;;;;;;;;;;;4958646;28;20679;-75
2023/10/14 02:22:00;;;;;;;10.50;1.98;;;;;;;;;;4956774;28;20364;-75
2023/10/14 02:24:29;;;;;;;11.60;1.80;;;;;;;;;;4957333;28;20047;-75
2023/10/14 02:27:10;;;;;;;18.15;1.92;;;;;;;;;;4957429;28;20399;-75
2023/10/14 02:29:36;;;;;;;13.52;2.33;;;;;;;;;;4957928;28;20465;-74
2023/10/14 02:32:02;;;;;;;11.15;2.00;;;;;;;;;;4958031;28;20121;-74
2023/10/14 02:34:28;;;;;;;;;;;;;;;;;;4957947;28;20042;-76
2023/10/14 02:36:54;;;;;;;9.70;1.73;;;;;;;;;;4956866;28;20290;-75
2023/10/14 02:39:26;;;;;;;16.35;2.00;;;;;;;;;;4957647;28;20150;-75
2023/10/14 02:44:43;;;;;;;13.10;1.80;;;;;;;;;;4957391;28;20154;-75
2023/10/14 02:47:09;;;;;;;14.95;2.10;;;;;;;;;;4957547;28;20050;-75
2023/10/14 02:49:46;;;;;;;;;;;;;;;;;;4957369;28;20038;-75
2023/10/14 02:52:12;;;;;;;;;;;;;;;;;;4957731;28;19929;-75
2023/10/14 02:54:40;;;;;;;;;;;;;;;;;;4957027;28;19922;-75
2023/10/14 02:57:28;;;;;;;;;;;;;;;;;;4957478;28;19929;-75
2023/10/14 02:59:55;;;;;;;;;;;;;;;;;;4956674;28;19922;-75
2023/10/14 03:02:25;;;;;;;;;;;;;;;;;;4957563;28;20360;-75
2023/10/14 03:07:30;;;;;;;;;;;;;;;;;;4957131;28;20372;-75
2023/10/14 03:12:41;;;;;;;;;;;;;;;;;;4957293;28;20283;-75
2023/10/14 03:15:18;;;;;;;;;;;;;;;;;;4957814;28;19922;-75
2023/10/14 03:17:51;;;;;;;;;;;;;;;;;;4957149;28;19928;-74
2023/10/14 03:22:53;;;;;;;;;;;;;;;;;;4955869;28;19918;-75
2023/10/14 03:25:23;;;;;;;;;;;;;;;;;;4956781;28;19988;-75
2023/10/14 03:27:49;;;;;;;;;;;;;;;;;;4956804;28;20367;-75
2023/10/14 03:30:15;;;;;;;;;;;;;;;;;;4957697;28;19977;-75
2023/10/14 03:32:42;;;;;;;;;;;;;;;;;;4956694;28;20400;-75
2023/10/14 03:35:20;;;;;;;;;;;;;;;;;;4957215;28;20017;-74
2023/10/14 03:37:53;;;;;;;;;;;;;;;;;;4956054;28;19922;-75
2023/10/14 03:43:07;;;;;;;;;;;;;;;;;;4956522;28;19933;-75
2023/10/14 03:45:33;;;;;;;;;;;;;;;;;;4957081;28;20326;-75
2023/10/14 03:48:08;;;;;;;;;;;;;;;;;;4956113;28;20016;-75
2023/10/14 03:50:34;;;;;;;;;;;;;;;;;;4957070;28;19984;-75
2023/10/14 03:53:00;;;;;;;;;;;;;;;;;;4955407;28;19981;-75
2023/10/14 03:55:26;;;;;;;;;;;;;;;;;;4956543;28;19983;-75
2023/10/14 03:57:52;;;;;;;;;;;;;;;;;;4956605;28;20376;-74
2023/10/14 04:00:18;;;;;;;;;;;;;;;;;;4957123;28;20299;-75
2023/10/14 04:02:44;;;;;;;;;;;;;;;;;;4956328;28;19929;-75
2023/10/14 04:05:10;;;;;;;;;;;;;;;;;;4956767;28;19956;-75
2023/10/14 04:07:40;;;;;;;;;;;;;;;;;;4955773;28;19945;-75
2023/10/14 04:10:09;;;;;;;;;;;;;;;;;;4956078;28;20374;-74
2023/10/14 04:12:40;;;;;;;;;;;;;;;;;;4956886;28;19929;-75
2023/10/14 04:17:38;;;;;;;;;;;;;;;;;;4956439;28;20020;-76
2023/10/14 04:22:39;;;;;;;;;;;;;;;;;;4956144;28;19929;-75
2023/10/14 04:27:45;;;;;;;;;;;;;;;;;;4956368;28;19930;-75
2023/10/14 04:30:11;;;;;;;;;;;;;;;;;;4956648;28;19929;-75
2023/10/14 04:33:33;;;;;;;;;;;;;;;;;;4956412;28;19922;-75
2023/10/14 04:35:31;;;;;;;;;;;;;;;;;;4948148;28;19976;-75
2023/10/14 04:37:57;;;;;;;;;;;;;;;;;;4954900;28;20383;-75
2023/10/14 04:42:59;;;;;;;;;;;;;;;;;;4955785;28;20315;-75
2023/10/14 04:45:31;;;;;;;;;;;;;;;;;;4956388;28;19968;-75
2023/10/14 04:47:58;;;;;;;;;;;;;;;;;;4955393;28;20346;-75
2023/10/14 04:50:24;;;;;;;;;;;;;;;;;;4956523;28;19929;-75
2023/10/14 04:52:50;;;;;;;;;;;;;;;;;;4954521;28;20296;-75
2023/10/14 04:55:26;;;;;;;;;;;;;;;;;;4955881;28;19922;-75
2023/10/14 04:58:34;;;;;;;;;;;;;;;;;;4955976;28;19922;-76
2023/10/14 05:00:49;;;;;;;;;;;;;;;;;;4952580;28;20078;-76
2023/10/14 05:03:15;;;;;;;;;;;;;;;;;;4975160;28;19992;-75
2023/10/14 05:05:42;;;;;;;;;;;;;;;;;;4974975;28;19922;-75
2023/10/14 05:08:14;;;;;;;;;;;;;;;;;;4974154;28;19930;-75
2023/10/14 05:10:42;;;;;;;;;;;;;;;;;;4963783;28;19977;-76
2023/10/14 05:13:09;;;;;;;;;;;;;;;;;;4955703;28;19945;-75
2023/10/14 05:15:39;;;;;;;;;;;;;;;;;;4956469;28;19929;-75
2023/10/14 05:18:05;;;;;;;;;;;;;;;;;;4955360;28;19926;-75
2023/10/14 05:23:19;;;;;;;;;;;;;;;;;;4958521;28;20284;-75
2023/10/14 05:25:45;;;;;;;;;;;;;;;;;;4958831;28;19922;-77
2023/10/14 05:28:11;;;;;;;;;;;;;;;;;;4959678;28;20331;-75
2023/10/14 05:30:39;;;;;;;;;;;;;;;;;;4959673;28;19944;-75
2023/10/14 05:33:08;;;;;;;;;;;;;;;;;;4958893;28;19984;-75
2023/10/14 05:35:35;;;;;;;;;;;;;;;;;;4959197;28;19922;-75
2023/10/14 05:38:01;;;;;;;;;;;;;;;;;;4957643;28;20410;-75
2023/10/14 05:40:27;;;;;;;;;;;;;;;;;;4959230;28;19922;-75
2023/10/14 05:42:53;;;;;;;;;;;;;;;;;;4958899;28;19922;-75
2023/10/14 05:45:21;;;;;;;;;;;;;;;;;;4959320;28;19926;-75
2023/10/14 05:47:47;;;;;;;;;;;;;;;;;;4958809;28;20279;-76
2023/10/14 05:50:16;;;;;;;;;;;;;;;;;;4958911;28;19922;-75
2023/10/14 05:52:43;;;;;;;;;;;;;;;;;;4958286;28;19929;-75
2023/10/14 05:55:09;;;;;;;;;;;;;;;;;;4958058;28;19922;-75
2023/10/14 05:57:39;;;;;;;;;;;;;;;;;;4959415;28;20275;-77
2023/10/14 06:00:20;;;;;;;;;;;;;;;;;;4958430;28;19929;-77
2023/10/14 06:02:46;;;;;;;;;;;;;;;;;;4959263;28;20016;-77
2023/10/14 06:05:12;;;;;;;;;;;;;;;;;;4958404;28;20375;-78
2023/10/14 06:07:39;;;;;;;;;;;;;;;;;;4958370;28;20322;-78
2023/10/14 06:10:10;;;;;;;;;;;;;;;;;;4957691;28;19972;-77
2023/10/14 06:12:35;;;;;;;;;;;;;;;;;;4959027;28;19922;-77
2023/10/14 06:15:03;;;;;;;;;;;;;;;;;;4958279;28;20008;-77
2023/10/14 06:17:29;;;;;;;;;;;;;;;;;;4958867;28;19922;-77
2023/10/14 06:19:55;;;;;;;;;;;;;;;;;;4958210;28;19926;-77
2023/10/14 06:22:21;;;;;;;;;;;;;;;;;;4958261;28;19922;-77
2023/10/14 06:24:47;;;;;;;;;;;;;;;;;;4957622;28;19922;-77
2023/10/14 06:27:22;;;;;;;;;;;;;;;;;;4957887;28;19972;-77
2023/10/14 06:29:48;;;;;;;;;;;;;;;;;;4958613;28;19976;-77
2023/10/14 06:32:14;;;;;;;;;;;;;;;;;;4957917;28;20382;-77
2023/10/14 06:34:40;;;;;;;;;;;;;;;;;;4958457;28;19922;-78
2023/10/14 06:37:07;;;;;;;;;;;;;;;;;;4938214;29;20284;-77
2023/10/14 06:39:39;;;;;;;;;;;;;;;;;;4935631;29;19923;-78
2023/10/14 06:42:05;;;;;;;;;;;;;;;;;;4935289;29;20277;-77
2023/10/14 06:44:32;;;;;;;;;;;;;;;;;;4935634;29;19922;-77
2023/10/14 06:46:58;;;;;;;;;;;;;;;;;;4934832;29;20014;-78
2023/10/14 06:49:32;;;;;;;;;;;;;;;;;;4935919;29;20296;-77
2023/10/14 06:51:58;;;;;;;;;;;;;;;;;;4934611;29;19922;-77
2023/10/14 06:54:30;;;;;;;;;;;;;;;;;;4935366;29;19930;-78
2023/10/14 06:56:56;;;;;;;;;;;;;;;;;;4934811;29;19923;-78
2023/10/14 06:59:22;;;;;;;;;;;;;;;;;;4935608;29;19922;-77
2023/10/14 07:01:48;;;;;;;;;;;;;;;;;;4935669;29;19926;-77
2023/10/14 07:04:16;;;;;;;;;;;;;;;;;;4934533;29;19919;-77
2023/10/14 07:06:47;;;;;;;;;;;;;;;;;;4934811;29;19971;-77
2023/10/14 07:09:23;;;;;;;;;;;;;;;;;;4934743;29;19922;-77
2023/10/14 07:11:49;;;;;;;;;;;;;;;;;;4935036;29;20292;-77
2023/10/14 07:14:18;;;;;;;;;;;;;;;;;;4935030;29;20197;-77
2023/10/14 07:16:45;;;;;;;;;;;;;;;;;;4935333;29;20365;-77
2023/10/14 07:19:11;;;;;;;;;;;;;;;;;;4934806;29;19923;-77
2023/10/14 07:21:37;;;;;;;;;;;;;;;;;;4934451;29;19981;-77
2023/10/14 07:24:06;;;;;;;;;;;;;;;;;;4934271;29;19929;-77
2023/10/14 07:26:36;;;;;;;;;;;;;;;;;;4934286;29;20262;-77
2023/10/14 07:29:02;;;;;;;;;;;;;;;;;;4934779;29;19923;-78
2023/10/14 07:31:30;;;;;;;;;;;;;;;;;;4934774;29;19922;-77
2023/10/14 07:34:02;;;;;;;;;;;;;;;;;;4934724;29;19930;-79
2023/10/14 07:36:28;;;;;;;;;;;;;;;;;;4933901;28;19930;-77
2023/10/14 07:39:02;;;;;;;;;;;;;;;;;;4934162;29;19923;-78
2023/10/14 07:41:28;;;;;;;;;;;;;;;;;;4934503;29;19929;-77
2023/10/14 07:43:54;;;;;;;;;;;;;;;;;;4934622;29;19923;-77
2023/10/14 07:46:20;;;;;;;;;;;;;;;;;;4933999;29;20018;-78
2023/10/14 07:48:47;;;;;;;;;;;;;;;;;;4934747;29;20025;-78
2023/10/14 07:51:16;;;;;;;;;;;;;;;;;;4933898;29;19923;-78
2023/10/14 07:53:43;;;;;;;;;;;;;;;;;;4933962;29;19923;-77
2023/10/14 07:56:09;;;;;;;;;;;;;;;;;;4933771;29;19923;-77
2023/10/14 07:58:36;;;;;;;;;;;;;;;;;;4934942;29;20022;-78
2023/10/14 08:01:06;;;;;;;;;;;;;;;;;;4934099;29;20005;-78
2023/10/14 08:03:32;;;;;;;;;;;;;;;;;;4934455;29;19985;-78
2023/10/14 08:06:05;;;;;;;;;;;;;;;;;;4934242;29;20356;-79
2023/10/14 08:08:31;;;;;;;;;;;;;;;;;;4933512;29;19946;-77
2023/10/14 08:10:57;;;;;;;;;;;;;;;;;;4934056;29;20344;-78
2023/10/14 08:13:23;;;;;;;;;;;;;;;;;;4934138;29;20419;-78
2023/10/14 08:15:50;;;;;;;;;;;;;;;;;;4934035;29;19922;-77
2023/10/14 08:18:16;;;;;;;;;;;;;;;;;;4933568;29;19969;-77
2023/10/14 08:20:43;;;;;;;;;;;;;;;;;;4934383;29;20287;-77
2023/10/14 08:23:09;;;;;;;;;;;;;;;;;;4932698;29;19926;-78
2023/10/14 08:25:35;;;;;;;;;;;;;;;;;;4933980;29;20367;-77
2023/10/14 08:28:05;;;;;;;;;;;;;;;;;;4933919;29;19930;-79
2023/10/14 08:30:33;;;;;;;;;;;;;;;;;;4934183;29;19998;-78
2023/10/14 08:33:01;;;;;;;;;;;;;;;;;;4934127;29;19922;-78
2023/10/14 08:35:27;;;;;;;;;;;;;;;;;;4938723;28;19922;-78
2023/10/14 08:37:53;;;;;;;;;;;;;;;;;;4955556;28;19969;-76
2023/10/14 08:40:22;;;;;;;;;;;;;;;;;;4955386;28;19922;-76
2023/10/14 08:42:49;;;;;;;;;;;;;;;;;;4956450;28;20398;-76
2023/10/14 08:45:16;;;;;;;;;;;;;;;;;;4956159;28;20009;-75
2023/10/14 08:47:42;;;;;;;;;;;;;;;;;;4955890;28;19922;-76
2023/10/14 08:50:09;;;;;;;;;;;;;;;;;;4955714;28;19926;-76
2023/10/14 08:52:37;;;;;;;;;;;;;;;;;;4955831;28;19974;-75
2023/10/14 08:55:03;;;;;;;;;;;;;;;;;;4957329;28;20431;-77
2023/10/14 08:57:29;;;;;;;;;;;;;;;;;;4960106;28;19929;-76
2023/10/14 08:59:55;;;;;;;;;;;;;;;;;;4960376;28;19922;-76
2023/10/14 09:02:22;;;;;;;;;;;;;;;;;;4959711;28;19928;-76
2023/10/14 09:04:48;;;;;;;;;;;;;;;;;;4960160;28;19922;-76
2023/10/14 09:07:14;;;;;;;;;;;;;;;;;;4958960;28;20295;-76
2023/10/14 09:09:40;;;;;;;;;;;;;;;;;;4959434;28;19989;-76
2023/10/14 09:12:06;;;;;;;;;;;;;;;;;;4959749;28;19925;-77
2023/10/14 09:14:33;;;;;;;;;;;;;;;;;;4959824;28;19922;-76
2023/10/14 09:17:03;;;;;;;;;;;;;;;;;;4960001;28;19981;-76
2023/10/14 09:19:29;;;;;;;;;;;;;;;;;;4959484;28;19977;-75
2023/10/14 09:21:57;;;;;;;;;;;;;;;;;;4959257;28;19921;-75
2023/10/14 09:24:23;;;;;;;;;;;;;;;;;;4958664;28;20364;-76
2023/10/14 09:26:50;;;;;;;;;;;;;;;;;;4959277;28;19922;-76
2023/10/14 09:29:16;;;;;;;;;;;;;;;;;;4959367;28;19973;-76
2023/10/14 09:31:47;;;;;;;;;;;;;;;;;;4959618;28;19929;-76
2023/10/14 09:34:13;;;;;;;;;;;;;;;;;;4959267;28;20364;-76
2023/10/14 09:36:42;;;;;;;;;;;;;;;;;;4957785;28;20066;-76
2023/10/14 09:39:13;;;;;;;;;;;;;;;;;;4957723;28;19929;-78
2023/10/14 09:41:39;;;;;;;;;;;;;;;;;;4957954;28;19966;-76
2023/10/14 09:44:06;;;;;;;;;;;;;;;;;;4958502;28;20024;-76
2023/10/14 09:46:32;;;;;;;;;;;;;;;;;;4957607;28;19926;-76
2023/10/14 09:48:58;;;;;;;;;;;;;;;;;;4958333;28;19921;-76
2023/10/14 09:51:24;;;;;;;;;;;;;;;;;;4956998;28;19929;-76
2023/10/14 09:53:50;;;;;;;;;;;;;;;;;;4957834;28;19925;-76
2023/10/14 09:56:16;;;;;;;;;;;;;;;;;;4957384;28;19926;-76
2023/10/14 09:58:43;;;;;;;;;;;;;;;;;;4958263;28;19922;-76
2023/10/14 10:01:11;;;;;;;;;;;;;;;;;;4958261;28;19922;-76
2023/10/14 10:03:37;;;;;;;;;;;;;;;;;;4957678;28;20376;-76
2023/10/14 10:06:04;;;;;;;;;;;;;;;;;;4957359;28;19969;-77
2023/10/14 10:08:31;;;;;;;;;;;;;;;;;;4956468;28;19937;-76
2023/10/14 10:10:57;;;;;;;;;;;;;;;;;;4957578;28;20390;-76
2023/10/14 10:13:27;;;;;;;;;;;;;;;;;;4957496;28;19922;-76
2023/10/14 10:15:53;;;;;;;;;;;;;;;;;;4958096;28;19922;-76
2023/10/14 10:18:22;;;;;;;;;;;;;;;;;;4957122;28;19937;-76
2023/10/14 10:20:48;;;;;;;;;;;;;;;;;;4957911;28;19922;-76
2023/10/14 10:23:14;;;;;;;;;;;;;;;;;;4956107;28;20434;-77
2023/10/14 10:25:47;;;;;;;;;;;;;;;;;;4957118;28;19926;-75
2023/10/14 10:28:13;;;;;;;;;;;;;;;;;;4957278;28;19972;-77
2023/10/14 10:30:39;;;;;;;;;;;;;;;;;;4957740;28;19969;-76
2023/10/14 10:33:05;;;;;;;;;;;;;;;;;;4957450;28;19922;-75
2023/10/14 10:35:31;;;;;;;;;;;;;;;;;;4918827;28;1098167;-76
2023/10/14 10:37:57;;;;;;;;;;;;;;;;;;4957525;28;19928;-76
2023/10/14 10:40:25;;;;;;;;;;;;;;;;;;4957736;28;19922;-75
2023/10/14 10:42:53;;;;;;;;;;;;;;;;;;4958475;28;19973;-76
2023/10/14 10:45:22;;;;;;;;;;;;;;;;;;4958093;28;19922;-76
2023/10/14 10:47:48;;;;;;;;;;;;;;;;;;4958032;28;20327;-76
2023/10/14 10:50:14;;;;;;;;;;;;;;;;;;4958117;28;19922;-77
2023/10/14 10:52:40;;;;;;;;;;;;;;;;;;4957647;28;19926;-76
2023/10/14 10:55:06;;;;;;;;;;;;;;;;;;4957406;28;20035;-76
2023/10/14 10:57:32;;;;;;;;;;;;;;;;;;4957875;28;19922;-76
2023/10/14 10:59:58;;;;;;;;;;;;;;;;;;4958233;28;20330;-76
2023/10/14 11:02:25;;;;;;;;;;;;;;;;;;4957572;28;20013;-76
2023/10/14 11:04:51;;;;;;;;;;;;;;;;;;4957944;28;20004;-76
2023/10/14 11:07:19;;;;;;;;;;;;;;;;;;4956845;28;19984;-77
2023/10/14 11:09:45;;;;;;;;;;;;;;;;;;4957215;28;19922;-76
2023/10/14 11:12:11;;;;;;;;;;;;;;;;;;4957953;28;20332;-76
2023/10/14 11:14:37;;;;;;;;;;;;;;;;;;4957603;28;19918;-76
2023/10/14 11:17:04;;;;;;;;;;;;;;;;;;4956990;28;19922;-76
2023/10/14 11:19:30;;;;;;;;;;;;;;;;;;4957382;28;19933;-76
2023/10/14 11:21:58;;;;;;;;;;;;;;;;;;4957059;28;19922;-76
2023/10/14 11:24:24;;;;;;;;;;;;;;;;;;4956845;28;19922;-76
2023/10/14 11:26:50;;;;;;;;;;;;;;;;;;4957047;28;19941;-76
2023/10/14 11:29:16;;;;;;;;;;;;;;;;;;4957443;28;20010;-76
2023/10/14 11:31:42;;;;;;;;;;;;;;;;;;4957061;28;19929;-77
2023/10/14 11:34:07;;;;;;;;;;;;;;;;;;4957464;28;19977;-75
2023/10/14 11:36:36;;;;;;;;;;;;;;;;;;4955976;28;19926;-76
2023/10/14 11:39:02;;;;;;;;;;;;;;;;;;4957007;28;20438;-77
2023/10/14 11:41:30;;;;;;;;;;;;;;;;;;4956539;28;19922;-76
2023/10/14 11:43:56;;;;;;;;;;;;;;;;;;4957189;28;20343;-77
2023/10/14 11:46:22;;;;;;;;;;;;;;;;;;4956659;28;20008;-78
2023/10/14 11:48:48;;;;;;;;;;;;;;;;;;4957332;28;19922;-77
2023/10/14 11:51:14;;;;;;;;;;;;;;;;;;4956895;28;20374;-77
2023/10/14 11:53:40;;;;;;;;;;;;;;;;;;4956019;28;19930;-77
2023/10/14 11:56:06;;;;;;;;;;;;;;;;;;4956813;28;20352;-77
2023/10/14 11:58:32;;;;;;;;;;;;;;;;;;4956745;28;19922;-77
2023/10/14 12:00:58;;;;;;;;;;;;;;;;;;4957171;28;19928;-77
2023/10/14 12:03:27;;;;;;;;;;;;;;;;;;4956402;28;19922;-78
2023/10/14 12:05:57;;;;;;;;;;;;;;;;;;4957037;28;19922;-77
2023/10/14 12:08:23;;;;;;;;;;;;;;;;;;4955120;28;19973;-78
2023/10/14 12:10:49;;;;;;;;;;;;;;;;;;4956668;28;19968;-78
2023/10/14 12:13:15;;;;;;;;;;;;;;;;;;4956898;28;19922;-77
2023/10/14 12:15:43;;;;;;;;;;;;;;;;;;4956520;28;19922;-78
2023/10/14 12:18:13;;;;;;;;;;;;;;;;;;4956282;28;20335;-78
2023/10/14 12:20:39;;;;;;;;;;;;;;;;;;4956367;28;19929;-78
2023/10/14 12:23:06;;;;;;;;;;;;;;;;;;4955576;28;20657;-78
2023/10/14 12:25:31;;;;;;;;;;;;;;;;;;4955809;28;19925;-78
2023/10/14 12:27:57;;;;;;;;;;;;;;;;;;4956462;28;19953;-78
2023/10/14 12:30:58;;;;;;;;;;;;;;;;;;4956436;28;19921;-79
2023/10/14 12:33:19;;;;;;;;;;;;;;;;;;4954425;28;19944;-78
2023/10/14 12:35:45;;;;;;;;;;;;;;;;;;4955621;28;19926;-77
2023/10/14 12:38:19;;;;;;;;;;;;;;;;;;4955663;28;19933;-77
2023/10/14 12:40:45;;;;;;;;;;;;;;;;;;4955858;28;19922;-77
2023/10/14 12:43:15;;;;;;;;;;;;;;;;;;4956562;28;19928;-77
2023/10/14 12:45:41;;;;;;;;;;;;;;;;;;4956176;28;19929;-77
2023/10/14 12:48:10;;;;;;;;;;;;;;;;;;4956036;28;19922;-77
2023/10/14 12:50:46;;;;;;;;;;;;;;;;;;4955990;28;19929;-76
2023/10/14 12:53:12;;;;;;;;;;;;;;;;;;4955357;28;19925;-76
2023/10/14 12:55:44;;;;;;;;;;;;;;;;;;4955418;28;19929;-76
2023/10/14 12:58:10;;;;;;;;;;;;;;;;;;4956606;28;19926;-77
2023/10/14 13:00:36;;;;;;;;;;;;;;;;;;4955985;28;20029;-76
2023/10/14 13:03:09;;;;;;;;;;;;;;;;;;4956312;28;20352;-77
2023/10/14 13:05:35;;;;;;;;;;;;;;;;;;4960588;28;19929;-77
2023/10/14 13:08:02;;;;;;;;;;;;;;;;;;4969517;28;19921;-77
2023/10/14 13:10:28;;;;;;;;;;;;;;;;;;4974296;28;19922;-78
2023/10/14 13:12:54;;;;;;;;;;;;;;;;;;4975340;28;20004;-77
2023/10/14 13:15:29;;;;;;;;;;;;;;;;;;4975691;28;19977;-77
2023/10/14 13:17:58;;;;;;;;;;;;;;;;;;4975387;28;20279;-77
2023/10/14 13:20:27;;;;;;;;;;;;;;;;;;4975589;28;19928;-77
2023/10/14 13:22:53;;;;;;;;;;;;;;;;;;4974396;28;20016;-77
2023/10/14 13:25:21;;;;;;;;;;;;;;;;;;4974864;28;20049;-77
2023/10/14 13:27:49;;;;;;;;;;;;;;;;;;4974866;28;19979;-77
2023/10/14 13:30:16;;;;;;;;;;;;;;;;;;4975551;28;19921;-77
2023/10/14 13:32:42;;;;;;;;;;;;;;;;;;4974902;28;19921;-77
2023/10/14 13:35:08;;;;;;;;;;;;;;;;;;4975307;28;19922;-77
2023/10/14 13:37:34;;;;;;;;;;;;;;;;;;4974017;28;19922;-78
2023/10/14 13:39:59;;;;;;;;;;;;;;;;;;4974474;28;19926;-77
2023/10/14 13:42:25;;;;;;;;;;;;;;;;;;4979022;28;19976;-77
2023/10/14 13:44:51;;;;;;;;;;;;;;;;;;4978466;28;19976;-77
2023/10/14 13:47:17;;;;;;;;;;;;;;;;;;4978686;28;19930;-77
2023/10/14 13:49:45;;;;;;;;;;;;;;;;;;4978199;28;19922;-77
2023/10/14 13:52:16;;;;;;;;;;;;;;;;;;4978208;28;19957;-77
2023/10/14 13:54:42;;;;;;;;;;;;;;;;;;4977434;28;19930;-78
2023/10/14 13:57:11;;;;;;;;;;;;;;;;;;4978807;28;19929;-77
2023/10/14 13:59:38;;;;;;;;;;;;;;;;;;4978192;28;19922;-78
2023/10/14 14:02:04;;;;;;;;;;;;;;;;;;4978611;28;19928;-77
2023/10/14 14:04:33;;;;;;;;;;;;;;;;;;4978553;28;19925;-77
2023/10/14 14:06:58;;;;;;;;;;;;;;;;;;4977730;28;20314;-77
2023/10/14 14:09:27;;;;;;;;;;;;;;;;;;4978056;28;19922;-77
2023/10/14 14:11:56;;;;;;;;;;;;;;;;;;4977460;28;19921;-77
2023/10/14 14:14:22;;;;;;;;;;;;;;;;;;4978502;28;19922;-77
2023/10/14 14:16:48;;;;;;;;;;;;;;;;;;4977713;28;19992;-77
2023/10/14 14:19:15;;;;;;;;;;;;;;;;;;4978305;28;20351;-77
2023/10/14 14:21:44;;;;;;;;;;;;;;;;;;4977027;28;19921;-78
2023/10/14 14:24:10;;;;;;;;;;;;;;;;;;4977797;28;19926;-77
2023/10/14 14:26:36;;;;;;;;;;;;;;;;;;4976895;28;19928;-77
2023/10/14 14:29:03;;;;;;;;;;;;;;;;;;4978240;28;19921;-77
2023/10/14 14:31:30;;;;;;;;;;;;;;;;;;4977932;28;20287;-77
2023/10/14 14:33:56;;;;;;;;;;;;;;;;;;4977517;28;20013;-77
2023/10/14 14:36:22;;;;;;;;;;;;;;;;;;4967888;28;20001;-77
2023/10/14 14:38:48;;;;;;;;;;;;;;;;;;4954553;29;19922;-76
2023/10/14 14:41:17;;;;;;;;;;;;;;;;;;4954860;29;20046;-77
2023/10/14 14:43:43;;;;;;;;;;;;;;;;;;4954886;29;19922;-76
2023/10/14 14:46:11;;;;;;;;;;;;;;;;;;4955385;29;19922;-76
2023/10/14 14:48:37;;;;;;;;;;;;;;;;;;4954417;29;20008;-78
2023/10/14 14:51:03;;;;;;;;;;;;;;;;;;4954930;28;20009;-76
2023/10/14 14:53:30;;;;;;;;;;;;;;;;;;4953065;29;19930;-76
2023/10/14 14:55:56;;;;;;;;;;;;;;;;;;4954272;29;19992;-76
2023/10/14 14:58:22;;;;;;;;;;;;;;;;;;4955180;29;20016;-77
2023/10/14 15:00:48;;;;;;;;;;;;;;;;;;4954594;29;19923;-77
2023/10/14 15:03:15;;;;;;;;;;;;;;;;;;4954782;29;20345;-77
2023/10/14 15:05:45;;;;;;;;;;;;;;;;;;4954478;29;19977;-77
2023/10/14 15:08:11;;;;;;;;;;;;;;;;;;4953612;29;20376;-77
2023/10/14 15:10:37;;;;;;;;;;;;;;;;;;4954486;29;19922;-78
2023/10/14 15:13:03;;;;;;;;;;;;;;;;;;4954502;29;19923;-77
2023/10/14 15:15:28;;;;;;;;;;;;;;;;;;4954834;29;20246;-77
2023/10/14 15:17:55;;;;;;;;;;;;;;;;;;4954010;29;20020;-77
2023/10/14 15:20:21;;;;;;;;;;;;;;;;;;4954628;29;19923;-76
2023/10/14 15:22:47;;;;;;;;;;;;;;;;;;4953449;29;19929;-76
2023/10/14 15:25:13;;;;;;;;;;;;;;;;;;4953682;29;19927;-76
2023/10/14 15:27:39;;;;;;;;;;;;;;;;;;4954215;29;20533;-79
2023/10/14 15:30:11;;;;;;;;;;;;;;;;;;4954158;29;19922;-77
2023/10/14 15:32:37;;;;;;;;;;;;;;;;;;4954454;29;19922;-76
2023/10/14 15:35:03;;;;;;;;;;;;;;;;;;4953812;29;19977;-76
2023/10/14 15:37:30;;;;;;;;;;;;;;;;;;4967972;28;20001;-77
2023/10/14 15:39:56;;;;;;;;;;;;;;;;;;4972298;28;19922;-76
2023/10/14 15:42:21;;;;;;;;;;;;;;;;;;4973555;28;19929;-77
2023/10/14 15:44:47;;;;;;;;;;;;;;;;;;4973104;28;19921;-77
2023/10/14 15:47:13;;;;;;;;;;;;;;;;;;4973117;28;20013;-76
2023/10/14 15:49:42;;;;;;;;;;;;;;;;;;4973246;28;19922;-76
2023/10/14 15:52:09;;;;;;;;;;;;;;;;;;4972701;28;19929;-76
2023/10/14 15:54:35;;;;;;;;;;;;;;;;;;4972933;28;19929;-76
2023/10/14 15:57:03;;;;;;;;;;;;;;;;;;4972482;28;20557;-76
2023/10/14 15:59:29;;;;;;;;;;;;;;;;;;4973345;28;20009;-76
2023/10/14 16:01:55;;;;;;;;;;;;;;;;;;4972586;28;20060;-76
2023/10/14 16:04:22;;;;;;;;;;;;;;;;;;4972784;28;19922;-76
2023/10/14 16:06:49;;;;;;;;;;;;;;;;;;4971839;28;20012;-76
2023/10/14 16:09:15;;;;;;;;;;;;;;;;;;4972214;28;19922;-75
2023/10/14 16:11:41;;;;;;;;;;;;;;;;;;4972413;28;19922;-77
2023/10/14 16:14:07;;;;;;;;;;;;;;;;;;4972436;28;19970;-78
2023/10/14 16:16:33;;;;;;;;;;;;;;;;;;4972617;28;20460;-76
2023/10/14 16:19:00;;;;;;;;;;;;;;;;;;4972066;28;20336;-79
2023/10/14 16:21:26;;;;;;;;;;;;;;;;;;4972012;28;20423;-75
2023/10/14 16:23:52;;;;;;;;;;;;;;;;;;4971449;28;19923;-76
2023/10/14 16:26:18;;;;;;;;;;;;;;;;;;4972227;28;19969;-76
2023/10/14 16:28:48;;;;;;;;;;;;;;;;;;4971941;28;20017;-78
2023/10/14 16:31:14;;;;;;;;;;;;;;;;;;4972685;28;19921;-76
2023/10/14 16:33:40;;;;;;;;;;;;;;;;;;4972296;28;19922;-76
2023/10/14 16:36:06;;;;;;;;;;;;;;;;;;4967303;28;19922;-76
2023/10/14 16:38:31;;;;;;;;;;;;;;;;;;4952141;29;19950;-76
2023/10/14 16:40:57;;;;;;;;;;;;;;;;;;4952299;29;20304;-76
2023/10/14 16:43:26;;;;;;;;;;;;;;;;;;4953097;29;20327;-76
2023/10/14 16:45:52;;;;;;;;;;;;;;;;;;4952642;29;20368;-76
2023/10/14 16:48:19;;;;;;;;;;;;;;;;;;4952869;29;19923;-75
2023/10/14 16:50:46;;;;;;;;;;;;;;;;;;4953410;29;20300;-76
2023/10/14 16:53:14;;;;;;;;;;;;;;;;;;4951720;29;19922;-76
2023/10/14 16:55:40;;;;;;;;;;;;;;;;;;4952691;29;20394;-76
2023/10/14 16:58:06;;;;;;;;;;;;;;;;;;4952859;29;19927;-76
2023/10/14 17:00:33;;;;;;;;;;;;;;;;;;4953430;29;19922;-76
2023/10/14 17:03:00;;;;;;;;;;;;;;;;;;4952559;29;19922;-76
2023/10/14 17:05:27;;;;;;;;;;;;;;;;;;4953216;29;20360;-75